Aneta, North Dakota
Current Conditions -  °F | °C
As of 7:58 PM on Tuesday 25 Nov 2014 (Local Time) from KRDR Reporting Station
Light Snow Light Snow  
Wind Chill:   Ceiling: 2800
Heat Index: 16°   Visibility: 3mi
Dew Point: 14°   Wind: 16mph
Humidity: 90%   Direction: 30°NNE
Pressure: 30.03"   Gusts: NA
Location:  47.68°N, 97.99°W
Report Text: KRDR 260158Z AUTO 03014KT 3SM R35/4000FT -SN BR OVC028 M09/M10 A3003 RMK AO2 SLP194 P0000 T10871101
Loading
Personal Weather Stations






























Interactive Weather Map New forecast layout! Learn more

10-Day Weather Forecast

Advertisements
Track Severe Weather on mobile